Time;durP1;ratioP1;P1;durP2;ratioP2;P2;SDS_P1;SDS_P2;PMS_P1;PMS_P2;Temp;Humidity;BMP_temperature;BMP_pressure;BME280_temperature;BME280_humidity;BME280_pressure;Samples;Min_cycle;Max_cycle;Signal;HPM_P1;HPM_P2
2022/12/16 00:00:32;;;;;;;27.30;15.95;;;;;;;2.44;76.78;90978.25;2072078;69;20176;-78
2022/12/16 00:03:00;;;;;;;29.48;16.15;;;;;;;2.39;77.33;90990.44;2071653;69;20156;-76
2022/12/16 00:05:28;;;;;;;28.92;15.55;;;;;;;2.42;76.82;90994.78;2068359;69;20136;-81
2022/12/16 00:07:54;;;;;;;31.95;16.20;;;;;;;2.43;76.78;90985.13;2071283;69;20155;-77
2022/12/16 00:10:21;;;;;;;28.05;16.20;;;;;;;2.23;77.58;90983.84;2071073;69;20579;-78
2022/12/16 00:12:46;;;;;;;37.17;18.58;;;;;;;2.01;78.88;90991.50;2068077;69;20171;-76
2022/12/16 00:15:12;;;;;;;31.77;17.58;;;;;;;2.22;78.02;90985.19;2071360;69;20183;-79
2022/12/16 00:17:38;;;;;;;31.95;18.27;;;;;;;2.26;77.69;90988.94;2068151;69;20218;-80
2022/12/16 00:20:05;;;;;;;32.63;18.40;;;;;;;2.13;77.96;90995.03;2071539;69;20222;-76
2022/12/16 00:22:30;;;;;;;35.53;17.65;;;;;;;2.25;77.57;90989.53;2071485;69;20144;-77
2022/12/16 00:24:56;;;;;;;31.20;17.83;;;;;;;2.27;78.17;90995.22;2071312;69;20469;-75
2022/12/16 00:27:24;;;;;;;31.45;17.77;;;;;;;2.31;77.50;90987.13;2071445;69;20155;-76
2022/12/16 00:29:50;;;;;;;32.17;18.77;;;;;;;1.98;78.47;90990.66;2067840;69;20186;-77
2022/12/16 00:32:16;;;;;;;33.30;18.73;;;;;;;2.02;79.26;90993.69;2071584;69;20235;-76
2022/12/16 00:34:43;;;;;;;32.83;19.48;;;;;;;2.19;77.98;90986.38;2068256;69;20591;-80
2022/12/16 00:37:10;;;;;;;40.00;18.75;;;;;;;2.24;77.23;90985.31;2071307;69;20698;-78
2022/12/16 00:39:36;;;;;;;36.63;19.60;;;;;;;2.19;77.61;90981.53;2071247;69;20152;-76
2022/12/16 00:42:02;;;;;;;32.70;18.80;;;;;;;2.20;77.08;90985.78;2071173;69;20137;-76
2022/12/16 00:44:27;;;;;;;35.10;19.10;;;;;;;2.18;77.15;90985.66;2071237;69;20191;-76
2022/12/16 00:46:53;;;;;;;33.80;20.00;;;;;;;2.21;76.93;90984.47;2071240;69;20575;-76
2022/12/16 00:49:18;;;;;;;35.42;19.10;;;;;;;2.16;77.51;90982.75;2071683;69;20250;-79
2022/12/16 00:51:44;;;;;;;32.22;18.27;;;;;;;2.21;76.94;90987.22;2071425;69;20144;-79
2022/12/16 00:54:10;;;;;;;34.65;18.77;;;;;;;2.26;76.79;90983.38;2071118;69;20156;-77
2022/12/16 00:56:35;;;;;;;30.95;17.50;;;;;;;2.22;76.69;90983.13;2071319;69;20249;-76
2022/12/16 00:59:01;;;;;;;31.30;18.13;;;;;;;2.33;76.53;90998.38;2071523;69;20214;-75
2022/12/16 01:01:27;;;;;;;33.22;18.15;;;;;;;2.29;76.58;90987.75;2068083;69;20231;-75
2022/12/16 01:03:56;;;;;;;31.73;17.88;;;;;;;2.30;76.80;90982.91;2071569;69;20151;-77
2022/12/16 01:06:21;;;;;;;32.13;16.77;;;;;;;2.25;76.59;90992.31;2071143;69;20164;-77
2022/12/16 01:08:47;;;;;;;29.23;17.02;;;;;;;2.31;76.43;90994.75;2071442;69;20645;-77
2022/12/16 01:11:16;;;;;;;29.52;17.08;;;;;;;2.18;76.74;90999.53;2071543;69;20144;-77
2022/12/16 01:13:49;;;;;;;24.63;12.85;;;;;;;2.21;77.07;91012.22;2071255;69;20147;-76
2022/12/16 01:16:14;;;;;;;29.67;16.40;;;;;;;1.91;78.97;91007.50;2071221;69;20160;-77
2022/12/16 01:18:40;;;;;;;34.22;16.50;;;;;;;2.20;77.39;91012.81;2071542;69;20144;-76
2022/12/16 01:21:10;;;;;;;26.95;15.70;;;;;;;2.21;76.92;91008.72;2071306;69;20156;-76
2022/12/16 01:23:39;;;;;;;28.30;16.05;;;;;;;2.19;77.01;91014.13;2067796;69;20148;-76
2022/12/16 01:26:06;;;;;;;30.52;15.75;;;;;;;2.24;76.91;91010.28;2071223;69;20197;-78
2022/12/16 01:28:31;;;;;;;25.70;14.13;;;;;;;2.22;76.93;91016.44;2065048;69;20171;-76
2022/12/16 01:31:00;;;;;;;26.85;14.48;;;;;;;2.19;76.78;91014.84;2067727;69;20496;-76
2022/12/16 01:33:31;;;;;;;25.50;13.93;;;;;;;2.18;76.94;91012.69;2068059;69;20629;-77
2022/12/16 01:36:03;;;;;;;23.30;12.68;;;;;;;2.26;76.87;91013.19;2071331;69;20155;-78
2022/12/16 01:38:29;;;;;;;25.90;12.27;;;;;;;2.19;76.99;91008.56;2071519;69;20144;-78
2022/12/16 01:40:56;;;;;;;23.83;12.73;;;;;;;2.06;77.90;91009.84;2071244;69;20711;-77
2022/12/16 01:43:28;;;;;;;21.65;12.30;;;;;;;2.20;77.83;91013.56;2071508;69;20148;-78
2022/12/16 01:46:17;;;;;;;22.53;13.00;;;;;;;2.25;76.79;91011.75;2071491;69;20192;-79
2022/12/16 01:49:00;;;;;;;20.98;12.10;;;;;;;2.23;77.86;91022.72;2071375;69;20205;-77
2022/12/16 01:51:39;;;;;;;22.33;12.05;;;;;;;2.28;77.17;91025.16;2068003;69;20164;-78
2022/12/16 01:54:05;;;;;;;18.92;10.75;;;;;;;2.31;76.89;91023.25;2071100;69;20160;-76
2022/12/16 01:56:32;;;;;;;17.45;9.90;;;;;;;2.21;78.17;91026.09;2071790;69;20133;-75
2022/12/16 01:58:59;;;;;;;14.07;8.45;;;;;;;2.35;77.23;91025.56;2068504;69;20172;-79
2022/12/16 02:01:26;;;;;;;17.75;9.55;;;;;;;2.39;77.23;91026.53;2066071;69;20151;-76
2022/12/16 02:03:55;;;;;;;26.58;14.93;;;;;;;2.35;77.92;91028.34;2071562;69;20178;-76
2022/12/16 02:06:21;;;;;;;22.20;11.60;;;;;;;2.07;79.09;91025.19;2071535;69;20168;-77
2022/12/16 02:08:54;;;;;;;20.38;11.57;;;;;;;2.30;78.34;91038.44;2071153;69;20234;-76
2022/12/16 02:11:40;;;;;;;20.20;11.80;;;;;;;2.36;77.85;91038.09;2071301;69;20221;-75
2022/12/16 02:14:40;;;;;;;20.17;11.30;;;;;;;2.41;77.47;91039.81;2071176;69;20597;-75
2022/12/16 02:17:09;;;;;;;19.05;11.07;;;;;;;2.42;77.59;91035.69;2068088;69;20577;-76
2022/12/16 02:20:03;;;;;;;18.80;10.63;;;;;;;2.41;77.40;91032.19;2071862;69;20136;-76
2022/12/16 02:23:03;;;;;;;13.10;7.68;;;;;;;2.53;77.88;91035.75;2071260;69;20144;-77
2022/12/16 02:25:51;;;;;;;12.20;7.13;;;;;;;2.61;77.26;91035.53;2071159;69;20462;-79
2022/12/16 02:28:21;;;;;;;9.93;5.82;;;;;;;2.77;76.89;91030.25;2071302;69;20168;-78
2022/12/16 02:31:24;;;;;;;8.88;5.45;;;;;;;2.87;76.37;91028.09;2067612;69;20143;-77
2022/12/16 02:34:19;;;;;;;7.50;4.80;;;;;;;2.80;77.58;91027.00;2071082;69;20144;-79
2022/12/16 02:37:29;;;;;;;12.40;6.78;;;;;;;2.68;78.23;91039.41;2071104;69;20160;-75
2022/12/16 02:40:00;;;;;;;8.40;4.57;;;;;;;2.77;77.31;91039.31;2067223;69;20143;-74
2022/12/16 02:42:41;;;;;;;8.10;4.68;;;;;;;2.76;77.18;91037.16;2071225;69;20566;-76
2022/12/16 02:45:12;;;;;;;9.75;5.90;;;;;;;2.79;76.39;91038.69;2071409;69;20194;-75
2022/12/16 02:47:38;;;;;;;13.50;7.82;;;;;;;2.73;77.23;91032.78;2071189;69;20160;-76
2022/12/16 02:50:14;;;;;;;13.73;8.38;;;;;;;2.71;77.10;91027.84;2067502;69;20163;-74
2022/12/16 02:52:40;;;;;;;12.93;6.90;;;;;;;2.79;76.89;91033.16;2071104;69;20156;-76
2022/12/16 02:55:08;;;;;;;8.75;4.97;;;;;;;2.84;77.21;91034.88;2067435;69;20184;-75
2022/12/16 02:57:54;;;;;;;9.45;5.28;;;;;;;2.91;77.06;91027.63;2067601;69;20140;-76
2022/12/16 03:00:22;;;;;;;6.45;3.80;;;;;;;2.96;77.07;91034.88;2071022;69;20156;-74
2022/12/16 03:03:06;;;;;;;8.43;4.88;;;;;;;2.91;77.09;91036.69;2067623;69;20188;-77
2022/12/16 03:05:39;;;;;;;9.52;5.32;;;;;;;2.98;76.08;91035.75;2071009;69;20178;-75
2022/12/16 03:08:13;;;;;;;6.95;3.88;;;;;;;2.96;76.53;91037.66;2071002;69;20124;-78
2022/12/16 03:10:45;;;;;;;6.38;4.03;;;;;;;2.97;76.04;91041.88;2070834;69;20148;-76
2022/12/16 03:13:13;;;;;;;7.03;4.15;;;;;;;2.93;76.66;91034.03;2070940;69;20167;-81
2022/12/16 03:15:42;;;;;;;8.18;5.15;;;;;;;2.80;76.97;91032.56;2071142;69;20170;-80
2022/12/16 03:18:11;;;;;;;9.70;5.80;;;;;;;2.72;77.04;91040.41;2071027;69;20598;-77
2022/12/16 03:20:59;;;;;;;14.93;7.82;;;;;;;2.49;78.57;91040.31;2071328;69;20234;-77
2022/12/16 03:23:30;;;;;;;13.40;7.88;;;;;;;2.66;77.86;91051.13;2071507;69;20243;-78
2022/12/16 03:26:06;;;;;;;18.55;8.43;;;;;;;2.50;78.01;91050.84;2071309;69;20179;-79
2022/12/16 03:28:49;;;;;;;12.05;7.35;;;;;;;2.66;77.97;91050.41;2071454;69;20213;-76
2022/12/16 03:31:34;;;;;;;12.50;7.30;;;;;;;2.80;77.26;91052.00;2071357;69;20210;-77
2022/12/16 03:34:11;;;;;;;16.20;8.25;;;;;;;2.48;77.48;91059.03;2071436;69;20507;-78
2022/12/16 03:36:40;;;;;;;16.15;9.00;;;;;;;2.37;78.46;91050.66;2068040;69;20144;-77
2022/12/16 03:39:07;;;;;;;15.10;9.32;;;;;;;2.45;78.08;91042.84;2071357;69;20148;-77
2022/12/16 03:41:35;;;;;;;16.70;8.95;;;;;;;2.55;77.54;91043.47;2071690;69;20629;-77
2022/12/16 03:44:01;;;;;;;14.15;8.50;;;;;;;2.50;78.06;91050.84;2071665;69;20160;-78
2022/12/16 03:46:26;;;;;;;13.80;8.00;;;;;;;2.49;77.87;91035.50;2071509;69;20143;-77
2022/12/16 03:48:53;;;;;;;14.40;7.95;;;;;;;2.58;77.25;91052.69;2071569;69;20152;-77
2022/12/16 03:51:19;;;;;;;15.38;8.90;;;;;;;2.63;77.12;91051.59;2071337;69;20623;-78
2022/12/16 03:53:45;;;;;;;15.82;9.05;;;;;;;2.64;77.63;91053.78;2071473;69;20222;-76
2022/12/16 03:56:12;;;;;;;15.32;7.78;;;;;;;2.65;77.40;91058.00;2071524;69;20148;-76
2022/12/16 03:58:39;;;;;;;11.65;7.10;;;;;;;2.71;76.99;91058.41;2071592;69;20191;-78
2022/12/16 04:01:08;;;;;;;10.35;6.90;;;;;;;2.69;77.35;91057.53;2071480;69;20132;-76
2022/12/16 04:03:34;;;;;;;10.68;7.07;;;;;;;2.71;77.45;91061.16;2071653;69;20163;-76
2022/12/16 04:06:00;;;;;;;10.30;6.28;;;;;;;2.68;77.24;91061.63;2065337;69;20152;-76
2022/12/16 04:08:25;;;;;;;17.35;8.50;;;;;;;2.48;77.45;91061.09;2071498;69;20140;-77
2022/12/16 04:25:31;;;;;;;17.02;10.55;;;;;;;2.47;77.85;91088.13;2071787;69;20144;-78
2022/12/16 04:27:57;;;;;;;16.30;9.63;;;;;;;2.50;77.88;91086.94;2071495;69;20205;-78
2022/12/16 04:30:24;;;;;;;16.60;9.75;;;;;;;2.54;77.49;91078.16;2071501;69;20233;-78
